createdAt,value
2018-02-16T00:01:51.092Z,3.73
2018-02-16T00:05:03.779Z,2.67
2018-02-16T00:08:07.173Z,3.58
2018-02-16T00:11:10.572Z,3.25
2018-02-16T00:14:13.928Z,3.20
2018-02-16T00:17:18.028Z,2.50
2018-02-16T00:20:21.359Z,3.47
2018-02-16T00:23:24.748Z,2.55
2018-02-16T00:26:28.851Z,2.60
2018-02-16T00:29:32.685Z,2.40
2018-02-16T00:32:36.075Z,3.23
2018-02-16T00:35:40.185Z,1.60
2018-02-16T00:38:44.286Z,1.70
2018-02-16T00:41:47.677Z,2.87
2018-02-16T00:44:51.722Z,3.27
2018-02-16T00:47:55.838Z,3.43
2018-02-16T00:50:59.968Z,2.23
2018-02-16T00:54:03.337Z,3.15
2018-02-16T00:57:06.666Z,3.37
2018-02-16T01:00:12.493Z,3.37
2018-02-16T01:03:15.817Z,5.13
2018-02-16T01:06:19.929Z,3.83
2018-02-16T01:09:24.047Z,5.30
2018-02-16T01:12:29.098Z,4.13
2018-02-16T01:15:32.424Z,5.35
2018-02-16T01:18:35.798Z,8.30
2018-02-16T01:21:39.900Z,8.00
2018-02-16T01:24:44.092Z,5.47
2018-02-16T01:27:47.413Z,7.10
2018-02-16T01:30:51.513Z,9.27
2018-02-16T01:33:54.843Z,8.17
2018-02-16T01:36:59.242Z,15.35
2018-02-16T01:40:03.404Z,8.68
2018-02-16T01:43:06.746Z,7.72
2018-02-16T01:46:10.090Z,7.07
2018-02-16T01:49:13.677Z,5.80
2018-02-16T01:52:17.776Z,5.67
2018-02-16T01:55:21.893Z,6.33
2018-02-16T01:58:25.216Z,8.07
2018-02-16T02:01:29.709Z,4.82
2018-02-16T02:04:33.049Z,4.43
2018-02-16T02:07:36.393Z,6.87
2018-02-16T02:10:39.787Z,5.20
2018-02-16T02:13:43.141Z,4.68
2018-02-16T02:17:09.893Z,5.53
2018-02-16T02:20:14.884Z,3.55
2018-02-16T02:23:19.003Z,5.73
2018-02-16T02:26:22.404Z,4.73
2018-02-16T02:29:26.767Z,4.47
2018-02-16T02:32:30.120Z,3.90
2018-02-16T02:35:34.275Z,6.30
2018-02-16T02:38:37.660Z,6.30
2018-02-16T02:41:41.772Z,20.60
2018-02-16T02:44:45.097Z,8.30
2018-02-16T02:47:48.446Z,16.53
2018-02-16T02:50:52.575Z,5.97
2018-02-16T02:53:56.692Z,4.95
2018-02-16T02:57:00.236Z,6.87
2018-02-16T03:00:03.884Z,6.07
2018-02-16T03:03:07.248Z,5.87
2018-02-16T03:06:10.580Z,8.03
2018-02-16T03:09:13.908Z,7.07
2018-02-16T03:12:18.005Z,8.40
2018-02-16T03:15:22.280Z,8.75
2018-02-16T03:18:25.635Z,8.88
2018-02-16T03:21:28.964Z,11.73
2018-02-16T03:24:32.304Z,10.37
2018-02-16T03:27:35.777Z,14.50
2018-02-16T03:30:39.117Z,13.80
2018-02-16T03:33:42.459Z,13.87
2018-02-16T03:36:45.793Z,15.20
2018-02-16T03:39:49.942Z,15.27
2018-02-16T03:42:53.282Z,14.90
2018-02-16T03:45:56.611Z,15.70
2018-02-16T03:49:01.213Z,16.83
2018-02-16T03:52:04.571Z,17.33
2018-02-16T03:55:07.926Z,12.73
2018-02-16T03:58:11.266Z,14.33
2018-02-16T04:01:15.411Z,14.35
2018-02-16T04:04:18.837Z,15.23
2018-02-16T04:07:22.193Z,17.47
2018-02-16T04:10:25.517Z,12.73
2018-02-16T04:13:28.915Z,13.20
2018-02-16T04:16:32.306Z,10.73
2018-02-16T04:19:36.652Z,16.80
2018-02-16T04:22:40.033Z,13.02
2018-02-16T04:25:44.132Z,14.30
2018-02-16T04:28:47.489Z,10.47
2018-02-16T04:31:50.817Z,12.80
2018-02-16T04:34:54.918Z,14.03
2018-02-16T04:37:58.273Z,13.87
2018-02-16T04:41:02.672Z,14.40
2018-02-16T04:44:06.771Z,12.37
2018-02-16T04:47:10.117Z,13.07
2018-02-16T04:50:13.441Z,13.43
2018-02-16T04:53:16.804Z,13.68
2018-02-16T04:56:20.916Z,13.73
2018-02-16T04:59:25.026Z,10.27
2018-02-16T05:02:29.142Z,13.63
2018-02-16T05:05:34.153Z,12.30
2018-02-16T05:08:37.497Z,9.50
2018-02-16T05:11:40.837Z,9.33
2018-02-16T05:14:44.250Z,10.80
2018-02-16T05:17:47.615Z,10.53
2018-02-16T05:20:50.937Z,10.20
2018-02-16T05:23:54.273Z,8.63
2018-02-16T05:26:57.640Z,10.82
2018-02-16T05:30:01.336Z,9.23
2018-02-16T05:33:04.697Z,13.43
2018-02-16T05:36:08.101Z,12.68
2018-02-16T05:39:11.442Z,12.77
2018-02-16T05:42:14.777Z,11.63
2018-02-16T05:45:18.127Z,6.72
2018-02-16T05:48:21.509Z,8.87
2018-02-16T05:51:24.860Z,7.67
2018-02-16T05:54:28.220Z,9.43
2018-02-16T05:57:31.572Z,7.35
2018-02-16T06:00:34.944Z,8.03
2018-02-16T06:03:38.269Z,7.77
2018-02-16T06:06:42.390Z,8.47
2018-02-16T06:09:45.804Z,5.70
2018-02-16T06:12:49.191Z,4.17
2018-02-16T06:15:53.334Z,4.83
2018-02-16T06:18:57.471Z,7.17
2018-02-16T06:22:00.796Z,5.10
2018-02-16T06:25:05.364Z,8.80
2018-02-16T06:28:08.906Z,8.63
2018-02-16T06:31:12.246Z,7.50
2018-02-16T06:34:15.675Z,5.82
2018-02-16T06:37:19.053Z,8.30
2018-02-16T06:40:23.141Z,6.77
2018-02-16T06:43:26.485Z,7.43
2018-02-16T06:46:29.812Z,4.43
2018-02-16T06:49:33.151Z,5.07
2018-02-16T06:52:37.265Z,4.53
2018-02-16T06:55:41.418Z,4.65
2018-02-16T06:58:44.769Z,6.17
2018-02-16T07:01:48.134Z,3.17
2018-02-16T07:04:51.477Z,3.37
2018-02-16T07:07:54.814Z,3.33
2018-02-16T07:10:58.332Z,2.23
2018-02-16T07:14:01.673Z,3.07
2018-02-16T07:17:05.008Z,1.90
2018-02-16T07:20:08.356Z,2.37
2018-02-16T07:23:11.915Z,3.55
2018-02-16T07:26:15.320Z,2.70
2018-02-16T07:29:18.734Z,2.90
2018-02-16T07:32:22.085Z,2.60
2018-02-16T07:35:25.470Z,2.40
2018-02-16T07:38:28.797Z,2.80
2018-02-16T07:41:32.129Z,1.83
2018-02-16T07:44:35.464Z,1.50
2018-02-16T07:47:38.818Z,1.60
2018-02-16T07:50:42.156Z,2.67
2018-02-16T07:53:45.497Z,0.97
2018-02-16T07:56:48.815Z,1.10
2018-02-16T07:59:52.220Z,1.10
2018-02-16T08:02:55.553Z,1.23
2018-02-16T08:06:00.429Z,1.37
2018-02-16T08:09:03.785Z,1.57
2018-02-16T08:12:07.297Z,0.97
2018-02-16T08:15:11.404Z,1.73
2018-02-16T08:18:14.841Z,2.53
2018-02-16T08:21:18.947Z,1.53
2018-02-16T08:24:22.314Z,1.37
2018-02-16T08:27:25.717Z,1.03
2018-02-16T08:30:29.122Z,3.60
2018-02-16T08:33:32.516Z,1.43
2018-02-16T08:36:35.852Z,1.87
2018-02-16T08:39:40.663Z,2.35
2018-02-16T08:42:43.997Z,5.07
2018-02-16T08:45:47.337Z,4.27
2018-02-16T08:48:51.223Z,2.27
2018-02-16T08:51:54.583Z,1.40
2018-02-16T08:54:58.747Z,2.20
2018-02-16T08:58:02.083Z,3.33
2018-02-16T09:01:06.195Z,4.07
2018-02-16T09:04:10.724Z,2.58
2018-02-16T09:07:14.046Z,2.37
2018-02-16T09:10:18.157Z,3.10
2018-02-16T09:13:22.261Z,1.50
2018-02-16T09:16:25.881Z,1.20
2018-02-16T09:19:30.104Z,1.40
2018-02-16T09:22:33.593Z,1.50
2018-02-16T09:25:37.740Z,1.10
2018-02-16T09:28:41.524Z,1.15
2018-02-16T09:31:44.899Z,1.37
2018-02-16T09:34:48.271Z,1.27
2018-02-16T09:37:51.586Z,1.60
2018-02-16T09:40:54.940Z,1.42
2018-02-16T09:43:59.040Z,0.87
2018-02-16T09:47:03.142Z,1.67
2018-02-16T09:50:06.484Z,1.43
2018-02-16T09:53:09.883Z,1.40
2018-02-16T09:56:14.187Z,0.83
2018-02-16T09:59:17.592Z,0.50
2018-02-16T10:02:20.909Z,0.53
2018-02-16T10:05:24.976Z,1.47
2018-02-16T10:08:28.311Z,1.40
2018-02-16T10:11:31.813Z,0.80
2018-02-16T10:14:35.176Z,2.40
2018-02-16T10:17:38.529Z,0.60
2018-02-16T10:20:41.869Z,1.17
2018-02-16T10:23:45.505Z,0.57
2018-02-16T10:26:49.595Z,2.30
2018-02-16T10:29:53.047Z,2.40
2018-02-16T10:32:56.376Z,1.30
2018-02-16T10:35:59.711Z,1.03
2018-02-16T10:39:03.060Z,0.53
2018-02-16T10:42:06.529Z,1.03
2018-02-16T10:45:09.918Z,0.70
2018-02-16T10:48:14.548Z,1.40
2018-02-16T10:51:18.013Z,3.87
2018-02-16T10:54:21.365Z,0.97
2018-02-16T10:57:25.541Z,0.67
2018-02-16T11:00:35.281Z,1.07
2018-02-16T11:03:38.622Z,0.40
2018-02-16T11:06:47.549Z,0.80
2018-02-16T11:09:50.880Z,0.30
2018-02-16T11:12:54.217Z,1.83
2018-02-16T11:15:58.462Z,0.20
2018-02-16T11:19:01.797Z,0.80
2018-02-16T11:22:05.169Z,0.60
2018-02-16T11:25:08.516Z,0.57
2018-02-16T11:28:11.841Z,0.20
2018-02-16T11:31:17.197Z,0.10
2018-02-16T11:34:21.304Z,0.75
2018-02-16T11:37:25.405Z,0.20
2018-02-16T11:40:28.747Z,2.07
2018-02-16T11:43:32.076Z,0.40
2018-02-16T11:46:35.414Z,0.30
2018-02-16T11:49:39.500Z,0.23
2018-02-16T11:52:42.856Z,0.20
2018-02-16T11:55:48.379Z,0.40
2018-02-16T11:58:52.465Z,0.73
2018-02-16T12:01:55.798Z,0.97
2018-02-16T12:04:59.917Z,0.60
2018-02-16T12:08:04.116Z,0.30
2018-02-16T12:11:07.465Z,0.63
2018-02-16T12:14:10.785Z,0.57
2018-02-16T12:17:14.168Z,0.40
2018-02-16T12:20:19.376Z,4.70
2018-02-16T12:23:23.483Z,0.60
2018-02-16T12:26:27.589Z,0.40
2018-02-16T12:29:30.928Z,0.77
2018-02-16T12:32:34.257Z,1.17
2018-02-16T12:35:37.596Z,0.63
2018-02-16T12:38:41.708Z,1.33
2018-02-16T12:41:45.092Z,1.03
2018-02-16T12:44:50.429Z,0.60
2018-02-16T12:47:53.757Z,0.43
2018-02-16T12:50:57.861Z,0.80
2018-02-16T12:54:02.031Z,2.00
2018-02-16T12:57:05.349Z,0.20
2018-02-16T13:00:08.699Z,0.57
2018-02-16T13:03:12.054Z,0.57
2018-02-16T13:06:15.397Z,0.55
2018-02-16T13:09:20.738Z,1.30
2018-02-16T13:12:24.845Z,2.13
2018-02-16T13:15:28.955Z,1.57
2018-02-16T13:18:32.289Z,1.97
2018-02-16T13:21:35.609Z,2.40
2018-02-16T13:24:38.942Z,1.53
2018-02-16T13:27:42.268Z,2.23
2018-02-16T13:30:45.636Z,2.20
2018-02-16T13:33:48.974Z,3.60
2018-02-16T13:36:52.321Z,1.90
2018-02-16T13:39:55.644Z,0.87
2018-02-16T13:42:59.750Z,1.80
2018-02-16T13:46:03.081Z,0.70
2018-02-16T13:49:06.486Z,0.85
2018-02-16T13:52:09.819Z,1.10
2018-02-16T13:55:13.322Z,2.90
2018-02-16T13:58:16.703Z,1.30
2018-02-16T14:01:20.285Z,1.03
2018-02-16T14:04:38.294Z,0.90
2018-02-16T14:07:41.617Z,1.13
2018-02-16T14:10:44.985Z,1.42
2018-02-16T14:13:48.378Z,0.77
2018-02-16T14:16:51.823Z,0.90
2018-02-16T14:19:55.194Z,1.90
2018-02-16T14:22:58.744Z,1.90
2018-02-16T14:26:02.094Z,1.10
2018-02-16T14:29:06.254Z,1.40
2018-02-16T14:32:09.616Z,3.87
2018-02-16T14:35:12.979Z,2.20
2018-02-16T14:38:16.312Z,1.80
2018-02-16T14:41:20.434Z,1.75
2018-02-16T14:44:23.921Z,1.60
2018-02-16T14:47:27.250Z,1.97
2018-02-16T14:50:31.360Z,1.40
2018-02-16T14:53:35.449Z,3.23
2018-02-16T14:56:38.804Z,3.77
2018-02-16T14:59:42.189Z,3.80
2018-02-16T15:02:46.303Z,4.30
2018-02-16T15:05:50.413Z,3.77
2018-02-16T15:08:55.190Z,4.30
2018-02-16T15:11:58.560Z,2.42
2018-02-16T15:15:01.890Z,2.30
2018-02-16T15:18:05.396Z,2.55
2018-02-16T15:21:08.718Z,5.43
2018-02-16T15:24:12.045Z,5.20
2018-02-16T15:27:15.520Z,3.33
2018-02-16T15:30:18.860Z,3.30
2018-02-16T15:33:22.236Z,3.43
2018-02-16T15:36:25.669Z,4.25
2018-02-16T15:39:29.876Z,7.32
2018-02-16T15:42:33.211Z,4.00
2018-02-16T15:45:36.573Z,5.93
2018-02-16T15:48:41.117Z,4.65
2018-02-16T15:51:44.507Z,5.00
2018-02-16T15:54:47.867Z,5.17
2018-02-16T15:57:51.984Z,7.90
2018-02-16T16:00:55.410Z,7.03
2018-02-16T16:03:59.510Z,6.20
2018-02-16T16:07:02.858Z,5.93
2018-02-16T16:10:06.173Z,5.93
2018-02-16T16:13:09.632Z,9.53
2018-02-16T16:16:12.979Z,6.13
2018-02-16T16:19:17.114Z,7.03
2018-02-16T16:22:20.460Z,7.47
2018-02-16T16:25:23.863Z,8.20
2018-02-16T16:28:27.201Z,8.27
2018-02-16T16:31:30.643Z,8.82
2018-02-16T16:34:33.986Z,7.83
2018-02-16T16:37:37.374Z,7.23
2018-02-16T16:40:40.708Z,8.57
2018-02-16T16:43:44.845Z,14.38
2018-02-16T16:46:48.202Z,11.32
2018-02-16T16:49:51.671Z,13.83
2018-02-16T16:52:56.698Z,12.47
2018-02-16T16:56:00.080Z,13.77
2018-02-16T16:59:04.239Z,14.10
2018-02-16T17:02:07.981Z,13.40
2018-02-16T17:05:11.496Z,14.35
2018-02-16T17:08:15.032Z,12.80
2018-02-16T17:11:18.521Z,17.43
2018-02-16T17:14:23.101Z,20.27
2018-02-16T17:17:27.072Z,25.50
2018-02-16T17:20:30.576Z,19.10
2018-02-16T17:23:33.958Z,17.70
2018-02-16T17:26:39.045Z,18.10
2018-02-16T17:29:43.153Z,19.77
2018-02-16T17:32:46.501Z,26.70
2018-02-16T17:35:49.953Z,30.07
2018-02-16T17:38:53.376Z,23.43
2018-02-16T17:41:57.524Z,21.98
2018-02-16T17:45:00.896Z,16.23
2018-02-16T17:48:04.456Z,21.60
2018-02-16T17:51:07.800Z,19.00
2018-02-16T17:54:11.169Z,14.97
2018-02-16T17:57:14.556Z,13.07
2018-02-16T18:00:17.938Z,15.40
2018-02-16T18:03:21.354Z,15.80
2018-02-16T18:06:24.749Z,16.60
2018-02-16T18:09:28.613Z,18.27
2018-02-16T18:12:32.059Z,14.33
2018-02-16T18:15:35.511Z,15.43
2018-02-16T18:18:38.989Z,15.03
2018-02-16T18:21:42.408Z,11.52
2018-02-16T18:24:45.793Z,14.30
2018-02-16T18:27:49.150Z,14.83
2018-02-16T18:30:52.686Z,21.37
2018-02-16T18:33:56.073Z,20.27
2018-02-16T18:36:59.486Z,19.80
2018-02-16T18:40:02.865Z,12.65
2018-02-16T18:43:06.287Z,17.83
2018-02-16T18:46:19.949Z,20.63
2018-02-16T18:49:23.791Z,18.77
2018-02-16T18:52:27.195Z,15.00
2018-02-16T18:55:30.608Z,13.03
2018-02-16T18:58:34.102Z,16.48
2018-02-16T19:01:38.289Z,14.83
2018-02-16T19:04:41.661Z,14.43
2018-02-16T19:07:45.155Z,15.03
2018-02-16T19:10:48.550Z,12.80
2018-02-16T19:13:52.324Z,13.93
2018-02-16T19:16:57.777Z,17.43
2018-02-16T19:20:02.658Z,17.13
2018-02-16T19:23:06.013Z,16.33
2018-02-16T19:26:09.365Z,17.60
2018-02-16T19:29:12.706Z,20.88
2018-02-16T19:32:16.351Z,19.27
2018-02-16T19:35:20.075Z,18.93
2018-02-16T19:38:23.702Z,25.80
2018-02-16T19:41:27.290Z,25.75
2018-02-16T19:44:30.793Z,22.93
2018-02-16T19:47:35.047Z,19.57
2018-02-16T19:50:38.824Z,20.90
2018-02-16T19:53:43.369Z,22.17
2018-02-16T19:56:47.221Z,20.83
2018-02-16T19:59:51.059Z,24.25
2018-02-16T20:02:54.677Z,22.90
2018-02-16T20:05:58.120Z,21.03
2018-02-16T20:09:01.586Z,22.23
2018-02-16T20:12:05.305Z,29.87
2018-02-16T20:15:09.616Z,48.50
2018-02-16T20:18:14.284Z,35.97
2018-02-16T20:21:19.079Z,28.92
2018-02-16T20:24:22.776Z,23.00
2018-02-16T20:27:26.664Z,28.33
2018-02-16T20:30:32.254Z,50.20
2018-02-16T20:33:35.738Z,37.92
2018-02-16T20:36:39.938Z,27.87
2018-02-16T20:39:43.555Z,29.03
2018-02-16T20:42:47.969Z,23.77
2018-02-16T20:45:52.448Z,21.80
2018-02-16T20:48:55.905Z,23.53
2018-02-16T20:51:59.438Z,28.10
2018-02-16T20:55:03.056Z,39.13
2018-02-16T20:58:06.581Z,50.53
2018-02-16T21:01:10.810Z,42.75
2018-02-16T21:04:31.861Z,34.27
2018-02-16T21:07:37.671Z,42.40
2018-02-16T21:10:41.032Z,43.73
2018-02-16T21:13:44.408Z,49.38
2018-02-16T21:16:47.754Z,50.33
2018-02-16T21:19:51.085Z,40.77
2018-02-16T21:22:54.476Z,37.27
2018-02-16T21:25:57.816Z,48.17
2018-02-16T21:29:01.155Z,38.20
2018-02-16T21:32:04.569Z,40.23
2018-02-16T21:35:07.956Z,37.97
2018-02-16T21:38:12.084Z,45.50
2018-02-16T21:41:15.432Z,33.90
2018-02-16T21:44:18.752Z,52.07
2018-02-16T21:47:22.313Z,59.20
2018-02-16T21:50:25.666Z,47.13
2018-02-16T21:53:29.811Z,36.30
2018-02-16T21:56:33.682Z,41.40
2018-02-16T21:59:37.782Z,36.07
2018-02-16T22:02:41.321Z,40.00
2018-02-16T22:05:44.943Z,33.45
2018-02-16T22:08:49.345Z,38.63
2018-02-16T22:11:52.741Z,31.83
2018-02-16T22:14:56.836Z,31.13
2018-02-16T22:18:00.861Z,35.13
2018-02-16T22:21:04.274Z,33.17
2018-02-16T22:24:07.675Z,30.33
2018-02-16T22:27:11.778Z,28.83
2018-02-16T22:30:15.886Z,43.33
2018-02-16T22:33:19.429Z,59.40
2018-02-16T22:36:22.836Z,39.77
2018-02-16T22:39:26.766Z,34.77
2018-02-16T22:42:30.200Z,32.50
2018-02-16T22:45:35.577Z,30.82
2018-02-16T22:48:38.932Z,40.25
2018-02-16T22:51:42.314Z,27.00
2018-02-16T22:54:45.653Z,29.37
2018-02-16T22:57:48.992Z,30.33
2018-02-16T23:00:52.372Z,26.47
2018-02-16T23:03:56.533Z,37.20
2018-02-16T23:06:59.893Z,34.20
2018-02-16T23:10:03.362Z,31.25
2018-02-16T23:13:06.756Z,24.13
2018-02-16T23:16:10.099Z,25.40
2018-02-16T23:19:13.550Z,27.70
2018-02-16T23:22:17.673Z,25.47
2018-02-16T23:25:21.017Z,25.40
2018-02-16T23:28:24.401Z,25.77
2018-02-16T23:31:28.532Z,23.90
2018-02-16T23:34:31.877Z,31.73
2018-02-16T23:37:37.050Z,26.05
2018-02-16T23:40:41.179Z,34.15
2018-02-16T23:43:45.230Z,30.80
2018-02-16T23:46:48.564Z,21.57
2018-02-16T23:49:51.919Z,27.87
2018-02-16T23:52:55.353Z,31.42
2018-02-16T23:55:58.746Z,40.77
2018-02-16T23:59:02.106Z,40.50
